createdAt,value
2019-03-29T00:01:04.192Z,66.30
2019-03-29T00:03:32.429Z,66.50
2019-03-29T00:06:00.652Z,66.00
2019-03-29T00:08:29.056Z,66.00
2019-03-29T00:10:57.391Z,66.90
2019-03-29T00:13:25.620Z,66.50
2019-03-29T00:15:53.842Z,67.40
2019-03-29T00:18:22.076Z,67.80
2019-03-29T00:20:50.301Z,67.90
2019-03-29T00:23:18.529Z,68.40
2019-03-29T00:25:46.763Z,67.80
2019-03-29T00:28:14.979Z,68.10
2019-03-29T00:30:43.215Z,67.90
2019-03-29T00:33:11.440Z,67.40
2019-03-29T00:35:39.668Z,67.60
2019-03-29T00:38:07.933Z,67.80
2019-03-29T00:40:36.156Z,67.30
2019-03-29T00:43:04.393Z,67.80
2019-03-29T00:45:32.924Z,68.00
2019-03-29T00:48:01.157Z,68.40
2019-03-29T00:50:29.693Z,68.10
2019-03-29T00:52:57.916Z,68.00
2019-03-29T00:55:26.136Z,68.40
2019-03-29T00:57:54.640Z,68.30
2019-03-29T01:00:22.869Z,68.60
2019-03-29T01:02:51.088Z,68.70
2019-03-29T01:05:19.324Z,68.90
2019-03-29T01:07:47.540Z,68.70
2019-03-29T01:10:15.782Z,69.70
2019-03-29T01:12:44.211Z,69.60
2019-03-29T01:15:12.508Z,69.30
2019-03-29T01:17:40.734Z,70.10
2019-03-29T01:20:08.966Z,70.50
2019-03-29T01:22:37.185Z,69.70
2019-03-29T01:25:07.990Z,69.50
2019-03-29T01:27:35.865Z,69.70
2019-03-29T01:30:05.737Z,69.60
2019-03-29T01:32:33.961Z,69.00
2019-03-29T01:35:02.260Z,68.50
2019-03-29T01:37:30.724Z,69.00
2019-03-29T01:39:59.211Z,68.80
2019-03-29T01:42:27.430Z,69.20
2019-03-29T01:44:56.287Z,69.40
2019-03-29T01:47:24.495Z,69.60
2019-03-29T01:49:52.733Z,69.50
2019-03-29T01:52:21.214Z,68.90
2019-03-29T01:54:49.436Z,69.20
2019-03-29T01:57:17.961Z,68.80
2019-03-29T01:59:46.196Z,69.00
2019-03-29T02:02:14.412Z,69.00
2019-03-29T02:04:42.644Z,68.00
2019-03-29T02:07:11.382Z,68.70
2019-03-29T02:09:40.273Z,68.40
2019-03-29T02:12:08.496Z,68.20
2019-03-29T02:14:36.725Z,68.10
2019-03-29T02:17:04.947Z,68.10
2019-03-29T02:19:33.181Z,67.90
2019-03-29T02:22:01.400Z,68.20
2019-03-29T02:24:29.637Z,68.00
2019-03-29T02:26:57.864Z,68.00
2019-03-29T02:29:26.373Z,68.10
2019-03-29T02:31:56.482Z,68.50
2019-03-29T02:34:24.566Z,69.60
2019-03-29T02:36:52.781Z,69.80
2019-03-29T02:39:21.028Z,69.80
2019-03-29T02:41:49.249Z,70.10
2019-03-29T02:44:17.496Z,69.90
2019-03-29T02:46:45.722Z,69.90
2019-03-29T02:49:14.313Z,69.70
2019-03-29T02:51:42.809Z,69.70
2019-03-29T02:54:11.045Z,70.30
2019-03-29T02:56:39.269Z,70.00
2019-03-29T02:59:07.621Z,70.50
2019-03-29T03:01:35.905Z,70.70
2019-03-29T03:04:04.265Z,70.40
2019-03-29T03:06:32.645Z,71.00
2019-03-29T03:09:13.051Z,71.30
2019-03-29T03:11:30.838Z,71.80
2019-03-29T03:13:59.074Z,71.70
2019-03-29T03:16:27.332Z,71.50
2019-03-29T03:18:55.573Z,71.10
2019-03-29T03:21:23.797Z,71.20
2019-03-29T03:23:52.038Z,72.20
2019-03-29T03:26:20.255Z,71.70
2019-03-29T03:28:48.496Z,71.80
2019-03-29T03:31:16.721Z,72.40
2019-03-29T03:33:44.964Z,72.70
2019-03-29T03:36:13.237Z,72.60
2019-03-29T03:38:41.475Z,72.40
2019-03-29T03:41:09.797Z,73.40
2019-03-29T03:43:38.354Z,72.80
2019-03-29T03:46:06.575Z,72.20
2019-03-29T03:48:34.808Z,72.00
2019-03-29T03:51:03.036Z,71.80
2019-03-29T03:53:31.273Z,72.10
2019-03-29T03:55:59.497Z,71.70
2019-03-29T03:58:27.737Z,71.80
2019-03-29T04:00:57.761Z,71.80
2019-03-29T04:03:26.412Z,71.70
2019-03-29T04:05:54.643Z,71.70
2019-03-29T04:08:22.953Z,71.40
2019-03-29T04:10:51.257Z,71.10
2019-03-29T04:13:19.509Z,70.70
2019-03-29T04:15:47.728Z,70.80
2019-03-29T04:18:16.607Z,70.60
2019-03-29T04:20:45.174Z,70.90
2019-03-29T04:23:13.411Z,70.70
2019-03-29T04:25:41.643Z,71.00
2019-03-29T04:28:09.880Z,70.90
2019-03-29T04:30:38.101Z,71.30
2019-03-29T04:33:10.870Z,72.00
2019-03-29T04:35:36.290Z,71.90
2019-03-29T04:38:04.593Z,72.50
2019-03-29T04:40:32.825Z,72.20
2019-03-29T04:43:01.049Z,72.30
2019-03-29T04:45:29.570Z,72.30
2019-03-29T04:47:57.795Z,72.50
2019-03-29T04:50:26.037Z,72.50
2019-03-29T04:52:54.280Z,72.00
2019-03-29T04:55:22.524Z,71.70
2019-03-29T04:57:50.780Z,71.40
2019-03-29T05:00:19.001Z,71.60
2019-03-29T05:02:47.500Z,71.60
2019-03-29T05:05:15.993Z,72.10
2019-03-29T05:07:44.296Z,72.80
2019-03-29T05:10:21.162Z,72.60
2019-03-29T05:12:42.500Z,73.70
2019-03-29T05:15:11.057Z,73.40
2019-03-29T05:17:39.291Z,73.50
2019-03-29T05:20:07.519Z,73.60
2019-03-29T05:22:35.766Z,73.90
2019-03-29T05:25:05.064Z,74.00
2019-03-29T05:27:33.312Z,74.00
2019-03-29T05:30:01.537Z,74.50
2019-03-29T05:32:30.101Z,74.90
2019-03-29T05:34:58.397Z,74.70
2019-03-29T05:37:26.651Z,75.00
2019-03-29T05:39:54.898Z,74.80
2019-03-29T05:42:23.125Z,75.30
2019-03-29T05:44:51.616Z,75.90
2019-03-29T05:47:19.848Z,75.40
2019-03-29T05:49:48.450Z,75.70
2019-03-29T05:52:16.664Z,76.30
2019-03-29T05:54:44.916Z,75.70
2019-03-29T05:57:13.467Z,75.60
2019-03-29T05:59:41.712Z,74.80
2019-03-29T06:02:09.946Z,75.30
2019-03-29T06:04:38.195Z,75.80
2019-03-29T06:07:06.416Z,75.20
2019-03-29T06:09:35.113Z,75.10
2019-03-29T06:12:03.480Z,75.20
2019-03-29T06:14:31.722Z,75.50
2019-03-29T06:16:59.952Z,74.30
2019-03-29T06:19:28.466Z,74.10
2019-03-29T06:21:56.692Z,74.00
2019-03-29T06:24:25.029Z,73.70
2019-03-29T06:26:53.349Z,73.10
2019-03-29T06:29:21.872Z,72.80
2019-03-29T06:31:50.100Z,72.80
2019-03-29T06:34:18.637Z,73.30
2019-03-29T06:36:46.869Z,73.40
2019-03-29T06:39:15.113Z,73.00
2019-03-29T06:41:43.344Z,74.00
2019-03-29T06:44:11.592Z,73.70
2019-03-29T06:46:39.825Z,73.60
2019-03-29T06:49:08.392Z,72.90
2019-03-29T06:51:36.629Z,72.40
2019-03-29T06:54:04.881Z,72.70
2019-03-29T06:56:33.436Z,72.30
2019-03-29T06:59:01.664Z,71.70
2019-03-29T07:01:29.893Z,71.40
2019-03-29T07:03:58.135Z,70.60
2019-03-29T07:06:26.360Z,70.30
2019-03-29T07:08:54.598Z,71.30
2019-03-29T07:11:22.816Z,82.90
2019-03-29T07:13:57.434Z,86.10
2019-03-29T07:16:21.007Z,77.30
2019-03-29T07:18:49.512Z,94.70
2019-03-29T07:21:21.806Z,88.10
2019-03-29T07:23:47.702Z,78.20
2019-03-29T07:26:15.933Z,75.70
2019-03-29T07:28:44.505Z,66.20
2019-03-29T07:31:12.737Z,68.40
2019-03-29T07:33:40.988Z,66.40
2019-03-29T07:36:09.220Z,66.50
2019-03-29T07:38:37.441Z,65.40
2019-03-29T07:41:05.993Z,65.70
2019-03-29T07:43:34.292Z,63.30
2019-03-29T07:46:02.593Z,63.10
2019-03-29T07:48:30.829Z,62.60
2019-03-29T07:50:59.063Z,62.00
2019-03-29T07:53:27.298Z,53.00
2019-03-29T07:55:55.532Z,52.20
2019-03-29T07:58:24.228Z,51.60
2019-03-29T08:00:52.467Z,54.60
2019-03-29T08:03:21.280Z,54.90
2019-03-29T08:05:49.904Z,55.00
2019-03-29T08:08:24.707Z,55.20
2019-03-29T08:10:48.100Z,55.10
2019-03-29T08:13:16.625Z,55.50
2019-03-29T08:15:44.931Z,55.20
2019-03-29T08:18:13.172Z,54.60
2019-03-29T08:20:44.076Z,54.90
2019-03-29T08:23:11.360Z,54.80
2019-03-29T08:25:39.596Z,54.60
2019-03-29T08:28:07.819Z,54.40
2019-03-29T08:30:36.060Z,54.40
2019-03-29T08:33:04.288Z,52.60
2019-03-29T08:35:32.542Z,52.10
2019-03-29T08:38:00.763Z,52.10
2019-03-29T08:40:28.996Z,51.60
2019-03-29T08:42:57.225Z,51.20
2019-03-29T08:45:25.455Z,51.10
2019-03-29T08:47:53.678Z,49.90
2019-03-29T08:50:21.914Z,49.50
2019-03-29T08:52:50.149Z,49.60
2019-03-29T08:55:18.368Z,48.50
2019-03-29T08:57:46.599Z,49.60
2019-03-29T09:00:18.424Z,49.20
2019-03-29T09:02:46.902Z,48.90
2019-03-29T09:05:15.133Z,49.40
2019-03-29T09:07:44.954Z,48.50
2019-03-29T09:10:26.219Z,47.50
2019-03-29T09:12:53.751Z,48.00
2019-03-29T09:15:22.149Z,46.50
2019-03-29T09:17:50.376Z,45.90
2019-03-29T09:20:18.603Z,46.10
2019-03-29T09:22:46.834Z,46.00
2019-03-29T09:25:15.049Z,43.60
2019-03-29T09:27:43.289Z,44.40
2019-03-29T09:30:11.781Z,45.70
2019-03-29T09:32:40.012Z,45.10
2019-03-29T09:35:08.232Z,46.20
2019-03-29T09:37:36.464Z,43.10
2019-03-29T09:40:06.092Z,44.10
2019-03-29T09:42:34.350Z,43.40
2019-03-29T09:45:02.568Z,43.40
2019-03-29T09:47:38.210Z,43.80
2019-03-29T09:50:00.743Z,43.50
2019-03-29T09:52:28.978Z,42.00
2019-03-29T09:54:57.205Z,41.70
2019-03-29T09:57:36.921Z,41.50
2019-03-29T09:59:55.384Z,40.00
2019-03-29T10:02:23.619Z,40.10
2019-03-29T10:04:51.848Z,40.10
2019-03-29T10:07:20.084Z,42.40
2019-03-29T10:09:48.311Z,39.30
2019-03-29T10:12:16.546Z,40.60
2019-03-29T10:14:44.767Z,39.30
2019-03-29T10:17:13.312Z,40.90
2019-03-29T10:19:41.793Z,39.00
2019-03-29T10:22:10.024Z,41.30
2019-03-29T10:24:38.252Z,40.00
2019-03-29T10:27:06.480Z,38.30
2019-03-29T10:29:34.704Z,38.70
2019-03-29T10:32:07.562Z,38.40
2019-03-29T10:34:32.881Z,37.60
2019-03-29T10:37:01.196Z,36.90
2019-03-29T10:39:29.420Z,37.20
2019-03-29T10:41:57.750Z,37.20
2019-03-29T10:44:25.970Z,39.60
2019-03-29T10:46:54.246Z,37.40
2019-03-29T10:49:22.496Z,39.90
2019-03-29T10:51:50.736Z,39.90
2019-03-29T10:54:18.952Z,37.70
2019-03-29T10:56:47.188Z,37.20
2019-03-29T10:59:26.713Z,37.90
2019-03-29T11:01:45.361Z,37.30
2019-03-29T11:04:13.580Z,37.80
2019-03-29T11:06:41.813Z,36.40
2019-03-29T11:09:10.291Z,38.70
2019-03-29T11:11:38.682Z,38.80
2019-03-29T11:14:07.254Z,37.40
2019-03-29T11:16:35.489Z,36.30
2019-03-29T11:19:03.704Z,37.80
2019-03-29T11:21:31.972Z,37.90
2019-03-29T11:24:00.236Z,34.80
2019-03-29T11:26:28.483Z,35.30
2019-03-29T11:28:57.326Z,34.60
2019-03-29T11:31:25.768Z,36.30
2019-03-29T11:33:54.149Z,35.40
2019-03-29T11:36:22.368Z,34.80
2019-03-29T11:38:50.611Z,36.00
2019-03-29T11:41:18.831Z,35.30
2019-03-29T11:43:47.068Z,34.00
2019-03-29T11:46:15.285Z,34.80
2019-03-29T11:48:43.845Z,35.60
2019-03-29T11:51:19.101Z,34.60
2019-03-29T11:53:42.027Z,35.20
2019-03-29T11:56:10.617Z,33.90
2019-03-29T11:58:38.844Z,33.70
2019-03-29T12:01:07.074Z,34.30
2019-03-29T12:03:35.309Z,34.90
2019-03-29T12:06:03.530Z,36.10
2019-03-29T12:08:31.772Z,33.40
2019-03-29T12:10:59.997Z,35.00
2019-03-29T12:13:40.433Z,35.10
2019-03-29T12:15:58.182Z,35.00
2019-03-29T12:18:26.409Z,32.40
2019-03-29T12:20:54.729Z,32.90
2019-03-29T12:23:22.960Z,34.10
2019-03-29T12:25:51.184Z,34.80
2019-03-29T12:28:19.422Z,34.40
2019-03-29T12:30:47.632Z,34.90
2019-03-29T12:33:15.865Z,34.30
2019-03-29T12:35:44.140Z,34.40
2019-03-29T12:38:12.369Z,34.60
2019-03-29T12:40:40.921Z,32.80
2019-03-29T12:43:12.426Z,35.50
2019-03-29T12:45:39.113Z,33.30
2019-03-29T12:48:07.339Z,34.60
2019-03-29T12:50:35.572Z,35.60
2019-03-29T12:53:03.794Z,35.70
2019-03-29T12:55:32.020Z,34.30
2019-03-29T12:58:00.250Z,33.90
2019-03-29T13:00:28.578Z,33.40
2019-03-29T13:02:56.853Z,34.80
2019-03-29T13:05:25.161Z,35.70
2019-03-29T13:07:53.526Z,35.00
2019-03-29T13:10:21.828Z,34.50
2019-03-29T13:12:50.065Z,35.10
2019-03-29T13:15:18.333Z,33.80
2019-03-29T13:17:46.918Z,34.50
2019-03-29T13:20:15.308Z,33.90
2019-03-29T13:22:43.548Z,33.90
2019-03-29T13:25:11.768Z,32.00
2019-03-29T13:27:40.001Z,33.60
2019-03-29T13:30:08.692Z,35.00
2019-03-29T13:32:36.929Z,34.50
2019-03-29T13:35:08.244Z,34.20
2019-03-29T13:37:36.483Z,34.30
2019-03-29T13:40:09.007Z,34.80
2019-03-29T13:42:37.244Z,34.60
2019-03-29T13:45:06.404Z,35.70
2019-03-29T13:47:35.382Z,34.00
2019-03-29T13:50:06.038Z,34.20
2019-03-29T13:52:34.293Z,33.50
2019-03-29T13:55:02.517Z,33.70
2019-03-29T13:57:31.014Z,35.70
2019-03-29T13:59:59.493Z,33.70
2019-03-29T14:02:27.731Z,33.70
2019-03-29T14:04:55.953Z,33.80
2019-03-29T14:07:24.195Z,34.20
2019-03-29T14:09:52.697Z,34.20
2019-03-29T14:12:20.932Z,33.70
2019-03-29T14:14:49.153Z,33.00
2019-03-29T14:17:17.392Z,33.70
2019-03-29T14:19:45.612Z,33.40
2019-03-29T14:22:14.152Z,34.30
2019-03-29T14:24:42.373Z,34.60
2019-03-29T14:27:10.845Z,35.00
2019-03-29T14:29:39.064Z,33.40
2019-03-29T14:32:07.306Z,33.70
2019-03-29T14:34:35.524Z,33.30
2019-03-29T14:37:04.148Z,33.90
2019-03-29T14:39:32.364Z,33.50
2019-03-29T14:42:00.600Z,33.90
2019-03-29T14:44:28.820Z,33.80
2019-03-29T14:46:57.068Z,34.30
2019-03-29T14:49:25.293Z,35.40
2019-03-29T14:51:53.528Z,34.00
2019-03-29T14:54:22.076Z,35.00
2019-03-29T14:56:50.307Z,35.10
2019-03-29T14:59:18.527Z,34.50
2019-03-29T15:01:47.114Z,33.80
2019-03-29T15:04:15.328Z,34.40
2019-03-29T15:06:43.568Z,34.50
2019-03-29T15:09:11.792Z,34.50
2019-03-29T15:11:40.031Z,35.20
2019-03-29T15:14:08.260Z,34.60
2019-03-29T15:16:36.497Z,34.80
2019-03-29T15:19:04.721Z,35.80
2019-03-29T15:21:32.940Z,35.50
2019-03-29T15:24:01.176Z,35.80
2019-03-29T15:26:29.668Z,35.70
2019-03-29T15:28:58.153Z,36.20
2019-03-29T15:31:26.373Z,34.70
2019-03-29T15:33:55.717Z,36.60
2019-03-29T15:36:24.216Z,36.60
2019-03-29T15:38:52.446Z,36.00
2019-03-29T15:41:20.660Z,35.70
2019-03-29T15:43:48.896Z,36.20
2019-03-29T15:46:17.117Z,35.80
2019-03-29T15:48:45.348Z,36.90
2019-03-29T15:51:13.867Z,36.40
2019-03-29T15:53:42.098Z,36.90
2019-03-29T15:56:10.324Z,37.00
2019-03-29T15:58:38.552Z,37.00
2019-03-29T16:01:06.772Z,36.90
2019-03-29T16:03:35.083Z,37.10
2019-03-29T16:06:03.300Z,37.30
2019-03-29T16:08:31.532Z,36.70
2019-03-29T16:10:59.788Z,37.00
2019-03-29T16:13:28.029Z,35.70
2019-03-29T16:15:56.257Z,36.00
2019-03-29T16:18:24.484Z,37.30
2019-03-29T16:20:52.704Z,35.90
2019-03-29T16:23:20.935Z,36.20
2019-03-29T16:25:49.160Z,35.50
2019-03-29T16:28:17.392Z,35.80
2019-03-29T16:30:45.612Z,36.50
2019-03-29T16:33:13.845Z,36.40
2019-03-29T16:35:42.064Z,35.50
2019-03-29T16:38:10.613Z,36.50
2019-03-29T16:40:38.832Z,35.20
2019-03-29T16:43:07.068Z,35.40
2019-03-29T16:45:47.194Z,35.50
2019-03-29T16:48:06.874Z,35.90
2019-03-29T16:50:35.573Z,41.50
2019-03-29T16:53:03.809Z,45.50
2019-03-29T16:55:32.025Z,38.70
2019-03-29T16:58:00.255Z,36.10
2019-03-29T17:00:28.478Z,35.80
2019-03-29T17:02:56.712Z,35.40
2019-03-29T17:05:24.936Z,37.10
2019-03-29T17:07:53.173Z,37.60
2019-03-29T17:10:21.392Z,36.10
2019-03-29T17:12:52.044Z,37.20
2019-03-29T17:15:19.584Z,37.50
2019-03-29T17:17:47.809Z,38.10
2019-03-29T17:20:16.044Z,39.00
2019-03-29T17:22:44.268Z,38.90
2019-03-29T17:25:12.500Z,38.70
2019-03-29T17:27:40.725Z,39.90
2019-03-29T17:30:09.297Z,38.20
2019-03-29T17:32:37.640Z,38.60
2019-03-29T17:35:06.546Z,40.20
2019-03-29T17:37:34.763Z,40.10
2019-03-29T17:40:04.287Z,41.10
2019-03-29T17:42:32.760Z,41.00
2019-03-29T17:45:01.201Z,41.30
2019-03-29T17:47:30.338Z,40.90
2019-03-29T17:49:58.728Z,40.10
2019-03-29T17:52:27.195Z,41.10
2019-03-29T17:54:55.821Z,40.90
2019-03-29T17:57:25.244Z,40.50
2019-03-29T17:59:53.769Z,42.40
2019-03-29T18:02:22.165Z,42.00
2019-03-29T18:04:50.396Z,41.90
2019-03-29T18:07:18.620Z,41.50
2019-03-29T18:09:46.856Z,41.30
2019-03-29T18:12:15.085Z,41.50
2019-03-29T18:14:43.629Z,42.00
2019-03-29T18:17:11.935Z,42.50
2019-03-29T18:19:40.164Z,42.60
2019-03-29T18:22:08.384Z,42.90
2019-03-29T18:24:36.941Z,42.40
2019-03-29T18:27:05.169Z,43.10
2019-03-29T18:29:33.404Z,43.20
2019-03-29T18:32:01.630Z,44.20
2019-03-29T18:34:29.869Z,43.70
2019-03-29T18:36:58.437Z,43.80
2019-03-29T18:39:26.680Z,44.80
2019-03-29T18:41:54.895Z,44.40
2019-03-29T18:44:23.127Z,44.10
2019-03-29T18:46:51.632Z,44.60
2019-03-29T18:49:19.865Z,44.90
2019-03-29T18:51:48.108Z,45.00
2019-03-29T18:54:16.344Z,44.20
2019-03-29T18:56:44.576Z,44.90
2019-03-29T18:59:12.806Z,43.90
2019-03-29T19:01:41.040Z,44.00
2019-03-29T19:04:09.265Z,44.90
2019-03-29T19:06:37.584Z,46.30
2019-03-29T19:09:06.452Z,44.20
2019-03-29T19:11:34.709Z,45.00
2019-03-29T19:14:02.932Z,45.70
2019-03-29T19:16:31.168Z,44.60
2019-03-29T19:19:09.946Z,45.20
2019-03-29T19:21:30.196Z,45.30
2019-03-29T19:23:58.754Z,44.90
2019-03-29T19:26:26.988Z,45.30
2019-03-29T19:28:55.213Z,45.30
2019-03-29T19:31:23.443Z,45.10
2019-03-29T19:33:51.668Z,45.50
2019-03-29T19:36:20.233Z,45.10
2019-03-29T19:38:48.922Z,45.10
2019-03-29T19:41:17.167Z,45.30
2019-03-29T19:43:45.397Z,45.50
2019-03-29T19:46:13.632Z,45.70
2019-03-29T19:48:41.853Z,45.60
2019-03-29T19:51:10.417Z,45.90
2019-03-29T19:53:38.645Z,45.50
2019-03-29T19:56:06.885Z,45.40
2019-03-29T19:58:35.320Z,46.40
2019-03-29T20:01:03.611Z,45.30
2019-03-29T20:03:31.854Z,46.60
2019-03-29T20:06:00.117Z,46.40
2019-03-29T20:08:28.444Z,47.50
2019-03-29T20:10:56.698Z,45.50
2019-03-29T20:13:24.919Z,46.10
2019-03-29T20:15:53.184Z,47.10
2019-03-29T20:18:21.404Z,46.70
2019-03-29T20:20:49.649Z,46.90
2019-03-29T20:23:17.956Z,46.90
2019-03-29T20:25:46.258Z,47.20
2019-03-29T20:28:14.493Z,47.70
2019-03-29T20:30:42.733Z,47.40
2019-03-29T20:33:13.346Z,47.50
2019-03-29T20:35:41.276Z,47.80
2019-03-29T20:38:09.498Z,47.70
2019-03-29T20:40:38.232Z,47.60
2019-03-29T20:43:06.471Z,48.10
2019-03-29T20:45:34.708Z,47.60
2019-03-29T20:48:02.924Z,47.70
2019-03-29T20:50:31.164Z,47.80
2019-03-29T20:52:59.392Z,47.80
2019-03-29T20:55:27.724Z,49.00
2019-03-29T20:57:55.948Z,48.30
2019-03-29T21:00:24.260Z,48.60
2019-03-29T21:02:52.495Z,48.60
2019-03-29T21:05:20.962Z,49.30
2019-03-29T21:07:49.214Z,48.80
2019-03-29T21:10:17.506Z,49.20
2019-03-29T21:12:45.796Z,49.30
2019-03-29T21:15:14.159Z,49.30
2019-03-29T21:17:55.479Z,49.50
2019-03-29T21:20:12.621Z,49.50
2019-03-29T21:22:40.856Z,49.30
2019-03-29T21:25:09.080Z,49.90
2019-03-29T21:27:37.945Z,50.00
2019-03-29T21:30:08.716Z,49.60
2019-03-29T21:32:36.957Z,50.20
2019-03-29T21:35:06.625Z,50.00
2019-03-29T21:37:35.299Z,50.40
2019-03-29T21:40:07.536Z,50.20
2019-03-29T21:42:36.213Z,51.00
2019-03-29T21:45:06.021Z,50.70
2019-03-29T21:47:34.256Z,50.50
2019-03-29T21:50:02.856Z,50.50
2019-03-29T21:52:31.200Z,50.00
2019-03-29T21:54:59.433Z,50.70
2019-03-29T21:57:28.036Z,50.20
2019-03-29T21:59:56.252Z,50.40
2019-03-29T22:02:24.497Z,49.80
2019-03-29T22:04:52.738Z,50.00
2019-03-29T22:07:20.973Z,50.40
2019-03-29T22:09:49.429Z,50.50
2019-03-29T22:12:17.673Z,50.70
2019-03-29T22:14:45.908Z,50.80
2019-03-29T22:17:14.148Z,50.90
2019-03-29T22:19:42.371Z,50.60
2019-03-29T22:22:10.613Z,51.40
2019-03-29T22:24:38.840Z,51.40
2019-03-29T22:27:07.083Z,51.30
2019-03-29T22:29:35.312Z,51.60
2019-03-29T22:32:03.553Z,53.20
2019-03-29T22:34:31.776Z,51.70
2019-03-29T22:37:00.013Z,52.80
2019-03-29T22:39:28.245Z,52.70
2019-03-29T22:41:56.487Z,53.50
2019-03-29T22:44:24.708Z,53.60
2019-03-29T22:46:52.933Z,54.50
2019-03-29T22:49:21.173Z,53.50
2019-03-29T22:51:49.408Z,54.00
2019-03-29T22:54:17.664Z,54.60
2019-03-29T22:56:45.904Z,54.90
2019-03-29T22:59:14.140Z,55.00
2019-03-29T23:01:42.912Z,55.00
2019-03-29T23:04:11.156Z,55.00
2019-03-29T23:06:39.384Z,55.10
2019-03-29T23:09:07.657Z,55.30
2019-03-29T23:11:35.879Z,54.40
2019-03-29T23:14:04.124Z,54.80
2019-03-29T23:16:33.293Z,55.50
2019-03-29T23:19:06.854Z,56.60
2019-03-29T23:21:31.781Z,56.40
2019-03-29T23:24:00.356Z,54.90
2019-03-29T23:26:48.113Z,55.90
2019-03-29T23:29:16.354Z,56.00
2019-03-29T23:31:44.580Z,55.10
2019-03-29T23:34:13.127Z,55.70
2019-03-29T23:36:41.348Z,56.60
2019-03-29T23:39:09.592Z,57.40
2019-03-29T23:41:37.868Z,56.20
2019-03-29T23:44:06.112Z,57.40
2019-03-29T23:46:34.602Z,56.80
2019-03-29T23:49:02.840Z,56.70
2019-03-29T23:51:31.364Z,57.80
2019-03-29T23:53:59.604Z,57.20
2019-03-29T23:56:27.837Z,57.40
2019-03-29T23:58:56.081Z,57.10
